KACV - Arcata/Eureka, California, USA
Updated: Fri, 26-May-2017 10:53pm PDT
Overcast
Overcast
 Wind from calm
Wind: Calm
Temperature: 52°F , 11°C
Dew Point: 52°F , 11°C
Humidity: 100%
Barometer: 30.07 inHg , 1018.3 hPa
Clouds: Overcast
Visibility: 9 miles , 14 km
Cloud details: Overcast 1400 ft
2017/05/27 05:53 KACV 270553Z AUTO 00000KT 9SM OVC014 11/11 A3007 RMK AO2 SLP187 T01110106 10128 20106 51007

Metar display script from Saratoga-Weather.org